createdAt,value
2023-11-19T00:02:04.735Z,18.60
2023-11-19T00:04:38.758Z,18.30
2023-11-19T00:07:11.703Z,14.90
2023-11-19T00:09:44.724Z,18.00
2023-11-19T00:12:16.550Z,17.60
2023-11-19T00:14:48.474Z,17.50
2023-11-19T00:17:20.278Z,19.00
2023-11-19T00:19:52.450Z,20.10
2023-11-19T00:22:24.332Z,18.80
2023-11-19T00:24:56.391Z,17.70
2023-11-19T00:27:28.231Z,18.60
2023-11-19T00:30:00.312Z,17.60
2023-11-19T00:32:32.116Z,18.20
2023-11-19T00:35:04.456Z,19.40
2023-11-19T00:37:36.391Z,18.40
2023-11-19T00:40:11.801Z,18.70
2023-11-19T00:42:44.090Z,19.00
2023-11-19T00:45:15.943Z,19.80
2023-11-19T00:47:47.786Z,18.70
2023-11-19T00:50:19.915Z,18.60
2023-11-19T00:52:52.490Z,17.80
2023-11-19T00:55:24.980Z,20.10
2023-11-19T00:57:57.559Z,20.20
2023-11-19T01:00:29.495Z,22.60
2023-11-19T01:03:01.434Z,19.70
2023-11-19T01:05:33.394Z,16.90
2023-11-19T01:08:05.633Z,14.00
2023-11-19T01:10:38.722Z,16.50
2023-11-19T01:13:11.384Z,15.60
2023-11-19T01:15:43.510Z,11.50
2023-11-19T01:18:15.453Z,13.80
2023-11-19T01:20:47.265Z,15.00
2023-11-19T01:23:19.075Z,15.80
2023-11-19T01:25:50.857Z,16.80
2023-11-19T01:28:22.611Z,15.10
2023-11-19T01:30:55.867Z,18.10
2023-11-19T01:33:28.063Z,18.00
2023-11-19T01:35:59.885Z,15.10
2023-11-19T01:38:32.003Z,16.60
2023-11-19T01:41:04.439Z,16.50
2023-11-19T01:43:37.400Z,18.30
2023-11-19T01:46:11.313Z,15.90
2023-11-19T01:48:46.746Z,14.10
2023-11-19T01:51:19.769Z,15.90
2023-11-19T01:53:51.960Z,17.40
2023-11-19T01:56:25.094Z,16.00
2023-11-19T01:58:57.774Z,18.80
2023-11-19T02:01:31.033Z,19.20
2023-11-19T02:04:03.644Z,18.90
2023-11-19T02:06:36.923Z,17.60
2023-11-19T02:09:09.471Z,19.90
2023-11-19T02:11:43.202Z,21.90
2023-11-19T02:14:15.059Z,19.50
2023-11-19T02:16:47.047Z,20.60
2023-11-19T02:19:21.087Z,22.50
2023-11-19T02:21:52.969Z,17.50
2023-11-19T02:24:28.543Z,17.40
2023-11-19T02:27:06.746Z,16.40
2023-11-19T02:29:38.590Z,22.70
2023-11-19T02:32:11.106Z,17.90
2023-11-19T02:34:43.037Z,16.20
2023-11-19T02:37:15.788Z,14.50
2023-11-19T02:39:47.597Z,13.80
2023-11-19T02:42:19.468Z,12.70
2023-11-19T02:44:51.303Z,14.00
2023-11-19T02:47:25.386Z,12.90
2023-11-19T02:49:58.752Z,11.90
2023-11-19T02:52:30.926Z,11.40
2023-11-19T02:55:02.820Z,9.70
2023-11-19T02:57:35.901Z,12.20
2023-11-19T03:00:13.557Z,14.70
2023-11-19T03:02:47.444Z,11.70
2023-11-19T03:05:21.015Z,14.40
2023-11-19T03:07:52.946Z,14.40
2023-11-19T03:10:25.100Z,13.80
2023-11-19T03:12:58.175Z,14.00
2023-11-19T03:15:30.044Z,10.00
2023-11-19T03:18:02.012Z,14.10
2023-11-19T03:20:33.823Z,13.40
2023-11-19T03:23:07.141Z,15.80
2023-11-19T03:25:39.222Z,15.80
2023-11-19T03:28:12.262Z,15.10
2023-11-19T03:30:44.114Z,15.70
2023-11-19T03:33:16.023Z,16.70
2023-11-19T03:35:47.973Z,17.50
2023-11-19T03:38:19.855Z,17.80
2023-11-19T03:40:51.653Z,14.70
2023-11-19T03:43:23.497Z,14.30
2023-11-19T03:45:55.538Z,13.60
2023-11-19T03:48:27.447Z,15.20
2023-11-19T03:50:59.262Z,17.40
2023-11-19T03:53:32.655Z,12.70
2023-11-19T03:56:04.777Z,16.20
2023-11-19T03:58:36.865Z,16.60
2023-11-19T04:01:13.112Z,15.40
2023-11-19T04:06:20.108Z,18.90
2023-11-19T04:08:51.988Z,17.70
2023-11-19T04:11:23.822Z,18.50
2023-11-19T04:13:55.638Z,19.80
2023-11-19T04:16:31.249Z,17.50
2023-11-19T04:19:03.407Z,19.80
2023-11-19T04:21:35.398Z,19.10
2023-11-19T04:24:08.026Z,16.70
2023-11-19T04:26:41.837Z,17.80
2023-11-19T04:29:15.822Z,19.20
2023-11-19T04:31:48.018Z,18.10
2023-11-19T04:34:19.922Z,18.60
2023-11-19T04:36:51.776Z,17.90
2023-11-19T04:39:23.695Z,17.60
2023-11-19T04:41:55.557Z,17.70
2023-11-19T04:44:27.380Z,17.60
2023-11-19T04:46:59.735Z,16.80
2023-11-19T04:49:32.247Z,16.70
2023-11-19T04:52:04.197Z,19.80
2023-11-19T04:54:36.035Z,19.40
2023-11-19T04:57:08.368Z,18.10
2023-11-19T04:59:40.199Z,17.40
2023-11-19T05:02:12.289Z,21.40
2023-11-19T05:04:48.296Z,20.30
2023-11-19T05:07:20.383Z,20.10
2023-11-19T05:09:52.198Z,19.90
2023-11-19T05:12:24.063Z,19.70
2023-11-19T05:14:55.960Z,22.00
2023-11-19T05:17:27.950Z,19.60
2023-11-19T05:19:59.778Z,20.70
2023-11-19T05:22:31.652Z,19.40
2023-11-19T05:25:04.058Z,16.70
2023-11-19T05:27:36.029Z,25.90
2023-11-19T05:30:11.454Z,25.30
2023-11-19T05:32:44.540Z,30.60
2023-11-19T05:35:16.650Z,26.30
2023-11-19T05:37:48.517Z,29.10
2023-11-19T05:40:21.762Z,29.60
2023-11-19T05:42:53.766Z,31.30
2023-11-19T05:45:25.557Z,33.90
2023-11-19T05:47:57.702Z,33.10
2023-11-19T05:50:29.750Z,28.90
2023-11-19T05:53:02.477Z,26.60
2023-11-19T05:55:35.424Z,27.50
2023-11-19T05:58:09.173Z,26.20
2023-11-19T06:00:41.470Z,28.70
2023-11-19T06:03:13.541Z,30.30
2023-11-19T06:05:47.908Z,23.50
2023-11-19T06:08:21.874Z,26.10
2023-11-19T06:10:53.729Z,26.90
2023-11-19T06:13:27.118Z,21.20
2023-11-19T06:15:59.101Z,23.80
2023-11-19T06:18:32.619Z,24.40
2023-11-19T06:21:04.601Z,32.70
2023-11-19T06:23:36.455Z,38.60
2023-11-19T06:26:09.611Z,48.20
2023-11-19T06:28:41.597Z,51.20
2023-11-19T06:31:15.285Z,45.30
2023-11-19T06:33:48.008Z,38.80
2023-11-19T06:36:19.970Z,31.10
2023-11-19T06:38:51.776Z,30.80
2023-11-19T06:41:23.570Z,30.00
2023-11-19T06:43:55.461Z,27.60
2023-11-19T06:46:27.332Z,22.40
2023-11-19T06:48:59.180Z,21.60
2023-11-19T06:51:31.255Z,16.30
2023-11-19T06:54:03.119Z,23.90
2023-11-19T06:56:34.935Z,19.10
2023-11-19T06:59:06.779Z,19.60
2023-11-19T07:01:39.758Z,21.70
2023-11-19T07:04:13.506Z,20.00
2023-11-19T07:06:45.388Z,22.50
2023-11-19T07:09:17.710Z,20.40
2023-11-19T07:11:51.689Z,11.50
2023-11-19T07:14:24.653Z,14.40
2023-11-19T07:16:56.950Z,18.70
2023-11-19T07:19:28.851Z,21.50
2023-11-19T07:22:00.684Z,14.10
2023-11-19T07:24:32.560Z,15.20
2023-11-19T07:27:05.222Z,13.00
2023-11-19T07:29:38.980Z,17.40
2023-11-19T07:32:11.609Z,19.70
2023-11-19T07:34:43.469Z,20.90
2023-11-19T07:37:15.314Z,20.70
2023-11-19T07:39:47.168Z,18.50
2023-11-19T07:42:19.012Z,21.70
2023-11-19T07:44:50.794Z,16.30
2023-11-19T07:47:24.709Z,17.60
2023-11-19T07:49:56.692Z,14.20
2023-11-19T07:52:29.419Z,17.30
2023-11-19T07:55:01.811Z,18.80
2023-11-19T07:57:33.684Z,16.20
2023-11-19T08:00:07.766Z,16.90
2023-11-19T08:02:39.778Z,17.30
2023-11-19T08:05:12.865Z,17.80
2023-11-19T08:07:44.789Z,11.70
2023-11-19T08:10:16.609Z,15.20
2023-11-19T08:12:48.464Z,15.60
2023-11-19T08:15:32.319Z,14.50
2023-11-19T08:18:04.527Z,19.30
2023-11-19T08:20:36.518Z,20.30
2023-11-19T08:23:08.719Z,20.30
2023-11-19T08:25:40.692Z,19.30
2023-11-19T08:28:12.537Z,15.30
2023-11-19T08:30:45.206Z,17.90
2023-11-19T08:33:17.737Z,18.00
2023-11-19T08:35:49.601Z,17.30
2023-11-19T08:41:00.654Z,15.90
2023-11-19T08:43:33.317Z,17.10
2023-11-19T08:46:05.397Z,18.80
2023-11-19T08:48:37.203Z,12.30
2023-11-19T08:51:09.428Z,16.90
2023-11-19T08:53:41.552Z,18.60
2023-11-19T08:56:13.550Z,15.90
2023-11-19T08:58:45.407Z,20.00
2023-11-19T09:01:17.217Z,18.40
2023-11-19T09:03:49.176Z,21.20
2023-11-19T09:06:21.282Z,22.80
2023-11-19T09:08:53.192Z,10.80
2023-11-19T09:11:25.154Z,12.50
2023-11-19T09:13:56.935Z,15.00
2023-11-19T09:16:28.753Z,15.40
2023-11-19T09:19:01.272Z,12.80
2023-11-19T09:21:35.728Z,14.90
2023-11-19T09:24:09.323Z,15.80
2023-11-19T09:26:42.676Z,15.80
2023-11-19T09:29:15.706Z,18.00
2023-11-19T09:31:47.617Z,12.00
2023-11-19T09:34:19.445Z,14.80
2023-11-19T09:36:51.256Z,13.10
2023-11-19T09:39:23.238Z,20.80
2023-11-19T09:41:55.281Z,16.10
2023-11-19T09:44:28.898Z,16.90
2023-11-19T09:47:02.649Z,13.80
2023-11-19T09:49:36.799Z,12.50
2023-11-19T09:52:09.239Z,15.90
2023-11-19T09:54:41.105Z,13.70
2023-11-19T09:57:15.311Z,15.60
2023-11-19T09:59:48.626Z,15.10
2023-11-19T10:02:21.251Z,16.10
2023-11-19T10:04:54.445Z,13.40
2023-11-19T10:07:27.499Z,12.90
2023-11-19T10:09:59.475Z,15.30
2023-11-19T10:12:31.512Z,10.10
2023-11-19T10:15:03.746Z,12.60
2023-11-19T10:17:37.833Z,15.90
2023-11-19T10:20:12.644Z,14.20
2023-11-19T10:22:44.486Z,15.30
2023-11-19T10:25:28.049Z,16.00
2023-11-19T10:28:00.221Z,15.50
2023-11-19T10:30:35.292Z,12.10
2023-11-19T10:33:12.330Z,13.10
2023-11-19T10:38:29.755Z,13.40
2023-11-19T10:41:01.862Z,12.60
2023-11-19T10:43:33.782Z,13.50
2023-11-19T10:46:15.104Z,16.70
2023-11-19T10:48:47.702Z,15.40
2023-11-19T10:51:24.506Z,10.60
2023-11-19T10:54:01.614Z,10.40
2023-11-19T10:56:34.308Z,13.20
2023-11-19T10:59:22.845Z,13.40
2023-11-19T11:01:58.604Z,12.10
2023-11-19T11:04:34.039Z,14.20
2023-11-19T11:07:07.873Z,14.00
2023-11-19T11:09:40.225Z,16.80
2023-11-19T11:12:14.112Z,14.90
2023-11-19T11:14:46.645Z,13.70
2023-11-19T11:17:22.460Z,13.00
2023-11-19T11:19:54.505Z,16.80
2023-11-19T11:25:20.947Z,13.20
2023-11-19T11:28:08.238Z,18.50
2023-11-19T11:30:57.199Z,15.80
2023-11-19T11:33:43.080Z,11.90
2023-11-19T11:36:21.261Z,23.00
2023-11-19T11:38:54.056Z,18.90
2023-11-19T11:41:29.669Z,15.00
2023-11-19T11:44:03.138Z,16.20
2023-11-19T11:46:58.915Z,16.70
2023-11-19T11:49:33.059Z,20.30
2023-11-19T11:52:06.427Z,15.60
2023-11-19T11:54:38.637Z,16.40
2023-11-19T11:57:15.681Z,18.40
2023-11-19T11:59:49.497Z,15.40
2023-11-19T12:02:24.207Z,16.60
2023-11-19T12:04:56.478Z,13.50
2023-11-19T12:07:28.633Z,17.00
2023-11-19T12:10:12.687Z,15.60
2023-11-19T12:12:44.660Z,12.80
2023-11-19T12:15:16.694Z,13.60
2023-11-19T12:17:54.274Z,13.20
2023-11-19T12:23:09.129Z,13.00
2023-11-19T12:25:41.223Z,11.80
2023-11-19T12:28:18.299Z,13.60
2023-11-19T12:33:22.051Z,16.30
2023-11-19T12:35:54.047Z,19.00
2023-11-19T12:38:26.902Z,15.10
2023-11-19T12:41:11.856Z,13.30
2023-11-19T12:46:27.719Z,20.60
2023-11-19T12:48:59.677Z,18.80
2023-11-19T12:51:35.731Z,25.20
2023-11-19T12:54:08.201Z,19.70
2023-11-19T12:56:41.824Z,17.90
2023-11-19T12:59:17.400Z,19.30
2023-11-19T13:01:58.861Z,21.10
2023-11-19T13:04:32.850Z,16.80
2023-11-19T13:07:06.823Z,22.50
2023-11-19T13:09:39.128Z,25.80
2023-11-19T13:12:18.053Z,26.90
2023-11-19T13:14:50.758Z,22.00
2023-11-19T13:17:22.587Z,23.40
2023-11-19T13:19:54.493Z,22.10
2023-11-19T13:22:26.392Z,22.80
2023-11-19T13:24:58.297Z,21.30
2023-11-19T13:27:30.191Z,23.50
2023-11-19T13:30:02.039Z,27.70
2023-11-19T13:32:33.883Z,26.20
2023-11-19T13:35:06.440Z,23.70
2023-11-19T13:37:38.268Z,24.70
2023-11-19T13:40:14.357Z,21.60
2023-11-19T13:42:46.956Z,17.60
2023-11-19T13:45:19.642Z,27.40
2023-11-19T13:47:51.668Z,23.40
2023-11-19T13:50:24.065Z,25.70
2023-11-19T13:52:55.894Z,21.30
2023-11-19T13:55:28.099Z,24.80
2023-11-19T13:57:59.963Z,23.50
2023-11-19T14:00:31.853Z,25.70
2023-11-19T14:03:04.021Z,20.20
2023-11-19T14:05:38.093Z,22.90
2023-11-19T14:08:19.770Z,20.00
2023-11-19T14:10:57.502Z,19.70
2023-11-19T14:13:29.339Z,22.40
2023-11-19T14:16:01.995Z,20.00
2023-11-19T14:18:37.164Z,18.10
2023-11-19T14:21:09.710Z,15.30
2023-11-19T14:23:41.553Z,16.50
2023-11-19T14:26:13.677Z,15.00
2023-11-19T14:43:03.309Z,17.30
2023-11-19T14:45:41.614Z,19.50
2023-11-19T14:48:18.694Z,17.00
2023-11-19T14:50:51.218Z,16.60
2023-11-19T14:53:23.738Z,15.30
2023-11-19T14:55:55.911Z,15.10
2023-11-19T14:58:27.867Z,14.00
2023-11-19T15:00:59.752Z,13.40
2023-11-19T15:03:31.855Z,16.90
2023-11-19T15:06:03.988Z,12.70
2023-11-19T15:08:35.829Z,14.20
2023-11-19T15:11:08.413Z,11.40
2023-11-19T15:13:43.049Z,11.10
2023-11-19T15:16:15.848Z,10.50
2023-11-19T15:18:47.806Z,8.90
2023-11-19T15:21:19.687Z,9.60
2023-11-19T15:23:51.513Z,8.20
2023-11-19T15:26:23.421Z,7.40
2023-11-19T15:28:57.260Z,6.40
2023-11-19T15:31:29.838Z,6.50
2023-11-19T15:34:01.795Z,6.50
2023-11-19T15:36:36.366Z,7.10
2023-11-19T15:39:08.531Z,6.20
2023-11-19T15:41:40.550Z,8.10
2023-11-19T15:44:12.508Z,5.00
2023-11-19T15:46:45.216Z,4.60
2023-11-19T15:49:17.316Z,6.80
2023-11-19T15:51:49.320Z,6.90
2023-11-19T15:54:21.128Z,6.30
2023-11-19T15:56:53.045Z,5.60
2023-11-19T15:59:24.863Z,5.40
2023-11-19T16:01:56.804Z,5.50
2023-11-19T16:04:28.845Z,5.40
2023-11-19T16:07:00.851Z,7.10
2023-11-19T16:09:32.968Z,4.00
2023-11-19T16:12:05.136Z,5.80
2023-11-19T16:14:37.143Z,6.70
2023-11-19T16:17:09.265Z,5.20
2023-11-19T16:19:42.074Z,6.30
2023-11-19T16:22:14.660Z,5.60
2023-11-19T16:24:47.202Z,7.20
2023-11-19T16:29:53.771Z,6.10
2023-11-19T16:32:25.739Z,5.70
2023-11-19T16:34:57.610Z,6.40
2023-11-19T16:37:29.480Z,4.50
2023-11-19T16:40:01.366Z,8.40
2023-11-19T16:42:33.374Z,7.20
2023-11-19T16:45:06.826Z,5.80
2023-11-19T16:47:38.907Z,7.30
2023-11-19T16:50:12.849Z,4.20
2023-11-19T16:52:44.721Z,5.00
2023-11-19T16:55:17.050Z,4.90
2023-11-19T16:57:48.849Z,6.50
2023-11-19T17:00:21.050Z,5.90
2023-11-19T17:02:53.037Z,5.70
2023-11-19T17:05:25.010Z,5.80
2023-11-19T17:07:56.792Z,5.90
2023-11-19T17:10:31.169Z,7.00
2023-11-19T17:13:02.953Z,6.50
2023-11-19T17:15:35.717Z,5.30
2023-11-19T17:18:07.810Z,4.70
2023-11-19T17:20:40.174Z,5.80
2023-11-19T17:23:12.275Z,7.90
2023-11-19T17:25:44.144Z,4.20
2023-11-19T17:28:16.003Z,5.40
2023-11-19T17:30:47.956Z,5.80
2023-11-19T17:33:20.015Z,6.90
2023-11-19T17:35:51.919Z,5.00
2023-11-19T17:38:27.577Z,5.30
2023-11-19T17:40:59.903Z,5.60
2023-11-19T17:43:31.740Z,6.80
2023-11-19T17:46:07.219Z,6.20
2023-11-19T17:48:39.211Z,5.30
2023-11-19T17:51:11.376Z,6.50
2023-11-19T17:53:43.219Z,5.40
2023-11-19T17:56:15.693Z,5.00
2023-11-19T17:58:49.684Z,6.60
2023-11-19T18:01:22.030Z,4.40
2023-11-19T18:03:53.959Z,6.60
2023-11-19T18:06:25.786Z,7.80
2023-11-19T18:08:57.769Z,6.50
2023-11-19T18:11:29.624Z,6.90
2023-11-19T18:14:01.434Z,7.90
2023-11-19T18:16:33.940Z,6.20
2023-11-19T18:19:06.155Z,4.60
2023-11-19T18:21:37.991Z,7.40
2023-11-19T18:24:11.108Z,9.40
2023-11-19T18:26:44.879Z,7.50
2023-11-19T18:29:18.228Z,8.20
2023-11-19T18:31:50.300Z,6.20
2023-11-19T18:34:22.417Z,7.40
2023-11-19T18:36:54.226Z,6.70
2023-11-19T18:39:26.279Z,7.70
2023-11-19T18:41:58.114Z,7.60
2023-11-19T18:44:30.098Z,5.30
2023-11-19T18:47:01.960Z,6.90
2023-11-19T18:49:33.763Z,8.50
2023-11-19T18:52:08.377Z,7.70
2023-11-19T18:54:40.191Z,5.50
2023-11-19T18:57:12.014Z,7.60
2023-11-19T18:59:43.856Z,6.80
2023-11-19T19:02:16.066Z,7.40
2023-11-19T19:04:48.083Z,6.80
2023-11-19T19:07:21.476Z,6.80
2023-11-19T19:09:55.631Z,9.80
2023-11-19T19:12:27.531Z,8.60
2023-11-19T19:17:36.021Z,7.80
2023-11-19T19:20:11.442Z,6.70
2023-11-19T19:22:43.793Z,7.20
2023-11-19T19:25:16.826Z,6.30
2023-11-19T19:27:54.423Z,7.10
2023-11-19T19:30:29.226Z,7.70
2023-11-19T19:33:01.213Z,7.90
2023-11-19T19:35:33.334Z,7.40
2023-11-19T19:38:05.467Z,6.80
2023-11-19T19:40:37.678Z,8.10
2023-11-19T19:43:10.650Z,6.60
2023-11-19T19:45:43.883Z,8.60
2023-11-19T19:48:16.242Z,7.00
2023-11-19T19:50:48.291Z,8.20
2023-11-19T19:53:20.824Z,8.30
2023-11-19T19:55:52.845Z,12.30
2023-11-19T19:58:24.679Z,9.70
2023-11-19T20:00:56.712Z,10.70
2023-11-19T20:03:29.209Z,9.30
2023-11-19T20:06:01.642Z,9.80
2023-11-19T20:08:33.654Z,9.40
2023-11-19T20:11:06.329Z,10.30
2023-11-19T20:13:38.334Z,9.80
2023-11-19T20:16:13.250Z,10.70
2023-11-19T20:18:45.147Z,8.40
2023-11-19T20:21:16.911Z,8.00
2023-11-19T20:23:48.674Z,9.80
2023-11-19T20:26:21.960Z,11.90
2023-11-19T20:31:28.646Z,11.00
2023-11-19T20:34:02.194Z,10.40
2023-11-19T20:36:34.176Z,9.30
2023-11-19T20:39:06.848Z,10.60
2023-11-19T20:41:38.708Z,9.90
2023-11-19T20:44:10.639Z,9.00
2023-11-19T20:46:42.541Z,10.00
2023-11-19T20:49:14.437Z,7.70
2023-11-19T20:51:46.346Z,8.20
2023-11-19T20:54:39.407Z,8.90
2023-11-19T20:57:10.043Z,10.10
2023-11-19T20:59:42.128Z,8.00
2023-11-19T21:02:15.335Z,8.20
2023-11-19T21:04:47.195Z,10.80
2023-11-19T21:07:19.096Z,10.30
2023-11-19T21:09:50.978Z,11.20
2023-11-19T21:12:22.924Z,8.90
2023-11-19T21:14:54.785Z,9.70
2023-11-19T21:17:26.852Z,10.20
2023-11-19T21:19:59.576Z,11.10
2023-11-19T21:22:31.496Z,8.10
2023-11-19T21:25:03.514Z,9.30
2023-11-19T21:27:35.416Z,8.30
2023-11-19T21:30:08.846Z,11.90
2023-11-19T21:32:40.753Z,10.90
2023-11-19T21:35:13.306Z,9.80
2023-11-19T21:37:45.146Z,11.40
2023-11-19T21:40:17.314Z,10.00
2023-11-19T21:42:49.134Z,10.70
2023-11-19T21:45:21.053Z,8.80
2023-11-19T21:47:53.007Z,10.20
2023-11-19T21:50:24.885Z,9.30
2023-11-19T21:52:57.404Z,11.70
2023-11-19T21:55:32.479Z,9.00
2023-11-19T21:58:05.552Z,12.00
2023-11-19T22:00:37.490Z,11.10
2023-11-19T22:03:09.690Z,12.90
2023-11-19T22:05:41.616Z,12.10
2023-11-19T22:10:50.158Z,8.40
2023-11-19T22:13:21.999Z,10.40
2023-11-19T22:15:53.847Z,13.90
2023-11-19T22:18:25.783Z,10.30
2023-11-19T22:20:57.670Z,11.80
2023-11-19T22:23:29.543Z,12.70
2023-11-19T22:26:02.196Z,10.80
2023-11-19T22:28:36.091Z,14.90
2023-11-19T22:31:08.296Z,14.30
2023-11-19T22:33:40.358Z,13.60
2023-11-19T22:36:12.673Z,16.10
2023-11-19T22:38:44.685Z,13.20
2023-11-19T22:41:16.517Z,10.70
2023-11-19T22:43:48.359Z,11.90
2023-11-19T22:46:22.251Z,11.20
2023-11-19T22:48:54.533Z,12.00
2023-11-19T22:51:27.082Z,12.10
2023-11-19T22:53:58.866Z,11.10
2023-11-19T22:56:30.987Z,12.60
2023-11-19T22:59:03.099Z,12.90
2023-11-19T23:01:35.089Z,10.90
2023-11-19T23:04:08.204Z,11.20
2023-11-19T23:06:40.225Z,12.70
2023-11-19T23:09:12.210Z,14.10
2023-11-19T23:11:44.185Z,11.20
2023-11-19T23:14:16.026Z,12.90
2023-11-19T23:16:48.069Z,12.70
2023-11-19T23:19:19.976Z,10.40
2023-11-19T23:21:51.820Z,13.00
2023-11-19T23:24:23.695Z,15.70
2023-11-19T23:26:57.377Z,10.40
2023-11-19T23:29:29.421Z,12.70
2023-11-19T23:32:01.239Z,9.20
2023-11-19T23:37:07.972Z,12.50
2023-11-19T23:39:39.849Z,11.80
2023-11-19T23:42:12.089Z,10.70
2023-11-19T23:44:43.900Z,9.40
2023-11-19T23:47:15.684Z,13.50
2023-11-19T23:49:47.567Z,13.10
2023-11-19T23:52:19.387Z,9.80
2023-11-19T23:54:51.312Z,15.30
2023-11-19T23:57:23.657Z,11.50
2023-11-19T23:59:56.112Z,9.80
